Time;durP1;ratioP1;P1;durP2;ratioP2;P2;SDS_P1;SDS_P2;PMS_P1;PMS_P2;Temp;Humidity;BMP_temperature;BMP_pressure;BME280_temperature;BME280_humidity;BME280_pressure;Samples;Min_cycle;Max_cycle;Signal;HPM_P1;HPM_P2
2023/04/24 00:02:12;;;;;;;;;;;;;;;22.07;28.40;97806.44;4999698;28;1080;-79
2023/04/24 00:04:41;;;;;;;;;;;;;;;21.94;28.91;97814.16;4998362;28;1153;-79
2023/04/24 00:07:06;;;;;;;;;;;;;;;22.13;28.45;97813.19;5015671;28;1104;-79
2023/04/24 00:09:33;;;;;;;;;;;;;;;21.78;29.24;97815.84;4998986;28;1903;-78
2023/04/24 00:11:58;;;;;;;;;;;;;;;21.88;28.92;97807.47;5015838;28;1019;-78
2023/04/24 00:14:24;;;;;;;;;;;;;;;21.72;29.10;97800.66;5016525;28;901;-78
2023/04/24 00:16:49;;;;;;;;;;;;;;;22.23;28.60;97802.75;4999358;28;909;-79
2023/04/24 00:19:15;;;;;;;;;;;;;;;22.61;27.94;97802.69;5015093;28;941;-79
2023/04/24 00:21:41;;;;;;;;;;;;;;;22.66;27.88;97799.28;5016560;28;992;-78
2023/04/24 00:24:08;;;;;;;;;;;;;;;22.26;28.55;97799.78;5015109;28;1076;-79
2023/04/24 00:26:34;;;;;;;;;;;;;;;22.03;28.59;97788.78;5015765;28;996;-78
2023/04/24 00:29:00;;;;;;;;;;;;;;;21.91;28.76;97800.88;4977845;28;1989;-78
2023/04/24 00:31:26;;;;;;;;;;;;;;;21.88;28.63;97796.16;4979119;28;980;-78
2023/04/24 00:33:51;;;;;;;;;;;;;;;22.10;29.10;97791.38;4977874;28;1076;-78
2023/04/24 00:36:19;;;;;;;;;;;;;;;22.56;28.25;97794.78;4979367;28;1219;-78
2023/04/24 00:38:45;;;;;;;;;;;;;;;22.63;28.15;97794.53;4981563;28;1386;-78
2023/04/24 00:41:11;;;;;;;;;;;;;;;22.40;27.99;97792.09;4998449;28;1275;-77
2023/04/24 00:43:36;;;;;;;;;;;;;;;22.20;28.36;97792.31;4997970;28;1017;-78
2023/04/24 00:46:02;;;;;;;;;;;;;;;21.58;29.42;97795.41;4998149;28;987;-78
2023/04/24 00:48:27;;;;;;;;;;;;;;;22.02;28.56;97804.19;4997562;28;1914;-78
2023/04/24 00:50:53;;;;;;;;;;;;;;;21.96;28.68;97800.31;4998698;28;974;-79
2023/04/24 00:53:19;;;;;;;;;;;;;;;22.02;28.65;97802.16;4964876;28;1014;-78
2023/04/24 00:55:45;;;;;;;;;;;;;;;21.81;28.93;97800.78;4997927;28;1162;-79
2023/04/24 00:58:10;;;;;;;;;;;;;;;21.87;29.30;97806.69;4982054;28;1006;-79
2023/04/24 01:00:36;;;;;;;;;;;;;;;22.39;28.62;97801.84;4992604;28;1006;-79
2023/04/24 01:03:02;;;;;;;;;;;;;;;22.60;28.09;97801.13;4981146;28;1125;-77
2023/04/24 01:05:27;;;;;;;;;;;;;;;22.49;28.12;97800.69;4965575;28;982;-77
2023/04/24 01:07:53;;;;;;;;;;;;;;;22.24;28.40;97807.97;4980717;28;1906;-79
2023/04/24 01:10:20;;;;;;;;;;;;;;;22.00;28.31;97804.63;4997764;28;984;-78
2023/04/24 01:12:45;;;;;;;;;;;;;;;21.90;28.47;97804.97;4981227;28;1064;-79
2023/04/24 01:15:11;;;;;;;;;;;;;;;21.43;28.57;97669.69;4997403;28;1019;-79
2023/04/24 01:17:38;;;;;;;;;;;;;;;22.58;28.08;97800.78;4997136;28;1032;-78
2023/04/24 01:20:05;;;;;;;;;;;;;;;22.19;28.65;97794.38;4997472;28;1000;-79
2023/04/24 01:22:31;;;;;;;;;;;;;;;22.11;28.76;97804.31;4949705;28;1275;-78
2023/04/24 01:24:56;;;;;;;;;;;;;;;21.84;28.79;97797.03;4981000;28;1016;-79
2023/04/24 01:27:22;;;;;;;;;;;;;;;21.60;28.92;97792.91;4980886;28;1906;-78
2023/04/24 01:29:49;;;;;;;;;;;;;;;22.21;28.65;97791.84;4980634;28;1132;-78
2023/04/24 01:32:14;;;;;;;;;;;;;;;22.39;28.38;97791.28;4981441;28;966;-78
2023/04/24 01:34:40;;;;;;;;;;;;;;;22.43;28.31;97788.31;5008470;28;952;-79
2023/04/24 01:37:05;;;;;;;;;;;;;;;22.30;28.25;97780.63;5017596;28;1221;-79
2023/04/24 01:39:33;;;;;;;;;;;;;;;22.12;28.59;97786.06;5018483;28;977;-79
2023/04/24 01:41:58;;;;;;;;;;;;;;;21.97;28.30;97794.22;5017938;28;870;-78
2023/04/24 01:44:24;;;;;;;;;;;;;;;21.93;28.85;97787.88;5017281;28;977;-78
2023/04/24 01:46:50;;;;;;;;;;;;;;;22.05;28.64;97789.13;5001632;28;1178;-79
2023/04/24 01:49:15;;;;;;;;;;;;;;;21.78;29.20;97781.84;5016927;28;1902;-79
2023/04/24 01:51:41;;;;;;;;;;;;;;;21.59;29.27;97785.66;5001606;28;1306;-78
2023/04/24 01:54:06;;;;;;;;;;;;;;;21.57;29.52;97782.50;5017664;28;881;-77
2023/04/24 01:56:33;;;;;;;;;;;;;;;21.88;29.04;97784.81;5001463;28;1256;-79
2023/04/24 01:58:58;;;;;;;;;;;;;;;22.23;28.41;97778.03;5017208;28;977;-79
2023/04/24 02:01:25;;;;;;;;;;;;;;;22.63;27.72;97772.63;5017751;28;897;-79
2023/04/24 02:03:50;;;;;;;;;;;;;;;22.65;27.99;97775.03;5017037;28;994;-78
2023/04/24 02:06:16;;;;;;;;;;;;;;;22.14;28.48;97772.25;5017721;28;931;-79
2023/04/24 02:08:41;;;;;;;;;;;;;;;21.81;28.79;97775.31;5000586;28;1898;-78
2023/04/24 02:11:10;;;;;;;;;;;;;;;21.78;28.86;97776.19;5019103;28;929;-79
2023/04/24 02:13:36;;;;;;;;;;;;;;;21.67;29.35;97769.28;5016867;28;1130;-79
2023/04/24 02:16:02;;;;;;;;;;;;;;;22.55;28.13;97764.84;5017274;28;945;-78
2023/04/24 02:18:29;;;;;;;;;;;;;;;22.61;27.71;97763.00;5000542;28;1241;-78
2023/04/24 02:20:56;;;;;;;;;;;;;;;22.65;27.72;97758.00;5018594;28;908;-77
2023/04/24 02:23:21;;;;;;;;;;;;;;;22.02;28.52;97759.66;5000147;28;1196;-78
2023/04/24 02:25:47;;;;;;;;;;;;;;;21.61;28.99;97769.03;5017374;28;990;-79
2023/04/24 02:28:12;;;;;;;;;;;;;;;21.75;28.79;97765.75;5016675;28;1977;-79
2023/04/24 02:30:38;;;;;;;;;;;;;;;22.11;28.66;97761.81;5018175;28;1002;-79
2023/04/24 02:33:03;;;;;;;;;;;;;;;22.53;27.99;97761.66;4979738;28;1197;-77
2023/04/24 02:35:29;;;;;;;;;;;;;;;22.56;27.86;97767.22;4979510;28;1065;-78
2023/04/24 02:37:55;;;;;;;;;;;;;;;22.67;27.94;97761.16;4995988;28;1052;-79
2023/04/24 02:40:20;;;;;;;;;;;;;;;22.51;27.91;97759.28;4947692;28;1032;-78
2023/04/24 02:42:46;;;;;;;;;;;;;;;22.36;27.69;97764.63;4963524;28;1360;-79
2023/04/24 02:45:12;;;;;;;;;;;;;;;22.16;28.23;97769.75;4979503;28;946;-78
2023/04/24 02:47:38;;;;;;;;;;;;;;;21.85;28.45;97764.63;4979420;28;1887;-78
2023/04/24 02:50:04;;;;;;;;;;;;;;;21.97;28.52;97759.44;4931259;28;1068;-77
2023/04/24 02:52:30;;;;;;;;;;;;;;;21.69;29.26;97761.91;4979916;28;1139;-78
2023/04/24 02:54:55;;;;;;;;;;;;;;;21.90;28.66;97768.16;4979326;28;1152;-78
2023/04/24 02:57:21;;;;;;;;;;;;;;;21.81;28.78;97766.81;4947761;28;1367;-78
2023/04/24 02:59:46;;;;;;;;;;;;;;;21.69;29.04;97761.91;4947128;28;1221;-79
2023/04/24 03:02:12;;;;;;;;;;;;;;;21.78;29.02;97764.06;4979750;28;1117;-79
2023/04/24 03:04:39;;;;;;;;;;;;;;;21.91;29.08;97764.06;5006050;28;1211;-79
2023/04/24 03:07:05;;;;;;;;;;;;;;;22.51;28.24;97758.50;5017986;28;948;-78
2023/04/24 03:09:31;;;;;;;;;;;;;;;22.78;27.51;97760.78;5015859;28;1898;-78
2023/04/24 03:11:58;;;;;;;;;;;;;;;22.78;27.61;97761.59;5016450;28;953;-79
2023/04/24 03:14:24;;;;;;;;;;;;;;;22.67;27.59;97766.84;4999968;28;1179;-79
2023/04/24 03:16:50;;;;;;;;;;;;;;;22.28;28.02;97757.63;5016095;28;959;-78
2023/04/24 03:19:15;;;;;;;;;;;;;;;21.70;28.83;97757.81;5017026;28;953;-79
2023/04/24 03:21:52;;;;;;;;;;;;;;;22.05;28.22;97766.44;5001924;28;1288;-79
2023/04/24 03:24:18;;;;;;;;;;;;;;;22.07;28.44;97763.94;4999834;28;1167;-79
2023/04/24 03:26:44;;;;;;;;;;;;;;;21.93;28.75;97764.41;5016691;28;1248;-79
2023/04/24 03:29:29;;;;;;;;;;;;;;;21.78;29.18;97769.75;5001709;28;1952;-79
2023/04/24 03:31:54;;;;;;;;;;;;;;;21.68;29.39;97766.00;5017378;28;953;-78
2023/04/24 03:34:20;;;;;;;;;;;;;;;21.55;29.50;97762.34;5015863;28;1282;-79
2023/04/24 03:36:48;;;;;;;;;;;;;;;21.53;29.48;97771.28;4979312;28;1132;-79
2023/04/24 03:39:14;;;;;;;;;;;;;;;22.27;28.13;97767.38;4978673;28;1251;-79
2023/04/24 03:41:46;;;;;;;;;;;;;;;22.60;28.24;97767.09;4964219;28;1250;-79
2023/04/24 03:44:17;;;;;;;;;;;;;;;22.31;28.50;97768.03;4963051;28;1253;-78
2023/04/24 03:46:42;;;;;;;;;;;;;;;22.01;28.64;97760.09;4963270;28;1231;-79
2023/04/24 03:49:08;;;;;;;;;;;;;;;21.72;29.11;97765.88;4982618;28;1914;-79
2023/04/24 03:51:38;;;;;;;;;;;;;;;21.78;29.11;97773.34;4944422;28;1140;-78
2023/04/24 03:54:13;;;;;;;;;;;;;;;21.69;29.12;97776.06;4975247;28;1119;-79
2023/04/24 03:56:39;;;;;;;;;;;;;;;21.55;29.71;97773.66;4959969;28;1364;-78
2023/04/24 03:59:05;;;;;;;;;;;;;;;21.58;29.62;97778.44;4959266;28;942;-78
2023/04/24 04:01:31;;;;;;;;;;;;;;;21.76;29.32;97778.69;4959746;28;1282;-79
2023/04/24 04:04:07;;;;;;;;;;;;;;;22.30;28.26;97777.81;4929992;28;1224;-78
2023/04/24 04:06:36;;;;;;;;;;;;;;;22.41;28.27;97777.44;4929126;28;1169;-79
2023/04/24 04:09:03;;;;;;;;;;;;;;;22.27;28.55;97784.38;4998198;28;1902;-79
2023/04/24 04:11:29;;;;;;;;;;;;;;;22.05;28.63;97783.44;4983179;28;1277;-78
2023/04/24 04:13:55;;;;;;;;;;;;;;;21.82;28.86;97785.38;5001939;28;1171;-79
2023/04/24 04:16:21;;;;;;;;;;;;;;;21.84;28.69;97790.59;5002336;28;1223;-79
2023/04/24 04:18:50;;;;;;;;;;;;;;;21.75;28.99;97788.41;5001545;28;1395;-76
2023/04/24 04:21:16;;;;;;;;;;;;;;;22.23;28.72;97782.94;4985978;28;1282;-78
2023/04/24 04:23:41;;;;;;;;;;;;;;;22.35;28.49;97807.63;5001574;28;1147;-77
2023/04/24 04:26:13;;;;;;;;;;;;;;;22.50;28.07;97773.91;4999510;28;1246;-79
2023/04/24 04:28:58;;;;;;;;;;;;;;;22.23;28.17;97778.03;5015876;28;1906;-78
2023/04/24 04:31:24;;;;;;;;;;;;;;;21.91;28.58;97787.50;4983655;28;1104;-78
2023/04/24 04:33:51;;;;;;;;;;;;;;;21.76;28.72;97784.34;4999497;28;1247;-79
2023/04/24 04:36:17;;;;;;;;;;;;;;;21.60;29.26;97781.59;4982920;28;1286;-78
2023/04/24 04:38:47;;;;;;;;;;;;;;;22.56;28.19;97780.59;5032946;28;1336;-78
2023/04/24 04:41:40;;;;;;;;;;;;;;;22.42;28.17;97783.91;4979064;28;994;-79
2023/04/24 04:44:08;;;;;;;;;;;;;;;22.53;28.18;97785.13;4962768;28;1208;-77
2023/04/24 04:46:37;;;;;;;;;;;;;;;22.03;28.77;97785.97;4962496;28;1152;-78
2023/04/24 04:49:10;;;;;;;;;;;;;;;22.12;28.17;97788.13;4944176;29;1982;-79
2023/04/24 04:51:36;;;;;;;;;;;;;;;21.73;28.58;97781.63;4927246;29;1393;-78
2023/04/24 04:54:02;;;;;;;;;;;;;;;21.75;29.03;97782.75;4943101;29;819;-78
2023/04/24 04:56:28;;;;;;;;;;;;;;;21.69;28.90;97778.91;4920826;29;1244;-78
2023/04/24 04:58:56;;;;;;;;;;;;;;;21.76;29.01;97778.69;4905209;29;1283;-79
2023/04/24 05:01:22;;;;;;;;;;;;;;;21.95;29.01;97784.59;4920600;29;911;-79
2023/04/24 05:03:49;;;;;;;;;;;;;;;22.48;28.40;97779.25;4920717;29;1408;-79
2023/04/24 05:06:16;;;;;;;;;;;;;;;22.31;28.59;97785.06;4874583;29;1190;-79
2023/04/24 05:08:44;;;;;;;;;;;;;;;22.27;28.35;97784.38;4920424;29;1895;-78
2023/04/24 05:11:30;;;;;;;;;;;;;;;22.18;28.40;97783.50;4921177;29;1173;-78
2023/04/24 05:13:57;;;;;;;;;;;;;;;22.00;28.44;97781.19;4904371;29;1332;-79
2023/04/24 05:16:31;;;;;;;;;;;;;;;21.58;29.06;97784.88;4905055;29;1146;-77
2023/04/24 05:18:57;;;;;;;;;;;;;;;21.85;29.01;97787.28;4896977;29;1149;-79
2023/04/24 05:21:29;;;;;;;;;;;;;;;21.81;29.24;97785.81;4939635;29;1322;-78
2023/04/24 05:23:54;;;;;;;;;;;;;;;21.50;29.43;97794.03;4906768;29;1114;-79
2023/04/24 05:26:39;;;;;;;;;;;;;;;22.69;28.24;97775.69;4936353;28;1268;-79
2023/04/24 05:29:07;;;;;;;;;;;;;;;22.69;27.85;97774.88;4980650;28;1906;-78
2023/04/24 05:31:32;;;;;;;;;;;;;;;22.59;28.11;97777.66;4968671;28;1318;-79
2023/04/24 05:33:58;;;;;;;;;;;;;;;22.06;28.44;97782.19;4983971;28;1191;-79
2023/04/24 05:36:24;;;;;;;;;;;;;;;22.06;28.51;97782.19;4984239;28;1488;-78
2023/04/24 05:38:49;;;;;;;;;;;;;;;21.67;29.45;97781.41;4996653;28;1254;-78
2023/04/24 05:41:15;;;;;;;;;;;;;;;21.63;29.17;97783.53;4965092;28;1242;-79
2023/04/24 05:43:40;;;;;;;;;;;;;;;22.03;28.63;97774.63;4980903;28;1019;-78
2023/04/24 05:46:06;;;;;;;;;;;;;;;22.29;28.40;97775.44;4981504;28;1241;-79
2023/04/24 05:48:32;;;;;;;;;;;;;;;22.49;28.57;97778.00;4980162;28;1902;-78
2023/04/24 05:51:00;;;;;;;;;;;;;;;22.62;28.23;97778.75;4965511;28;1258;-70
2023/04/24 05:53:26;;;;;;;;;;;;;;;22.79;28.38;97780.19;4979847;28;1104;-75
2023/04/24 05:55:52;;;;;;;;;;;;;;;22.07;29.36;97780.94;4980407;28;1292;-68
2023/04/24 05:58:19;;;;;;;;;;;;;;;22.07;29.30;97792.28;4963735;28;1123;-70
2023/04/24 06:00:46;;;;;;;;;;;;;;;21.78;30.21;97781.06;4979512;28;1159;-68
2023/04/24 06:03:12;;;;;;;;;;;;;;;21.74;30.10;97783.22;4979276;28;1402;-68
2023/04/24 06:05:37;;;;;;;;;;;;;;;21.70;30.56;97783.31;4979388;28;1002;-68
2023/04/24 06:08:03;;;;;;;;;;;;;;;21.62;30.82;97778.34;4959911;28;1902;-68
2023/04/24 06:10:33;;;;;;;;;;;;;;;21.88;30.66;97784.81;4975532;28;1407;-68
2023/04/24 06:13:02;;;;;;;;;;;;;;;21.87;30.65;97791.72;4995376;28;1317;-68
2023/04/24 06:15:30;;;;;;;;;;;;;;;21.83;30.66;97786.97;4995333;28;1392;-68
2023/04/24 06:17:59;;;;;;;;;;;;;;;22.00;30.25;97775.53;4995118;28;1313;-68
2023/04/24 06:20:25;;;;;;;;;;;;;;;22.03;30.32;97777.47;4962975;28;1273;-68
2023/04/24 06:22:51;;;;;;;;;;;;;;;21.69;30.80;97787.38;4963001;28;1285;-68
2023/04/24 06:25:16;;;;;;;;;;;;;;;21.75;30.71;97794.06;4975282;28;990;-79
2023/04/24 06:27:42;;;;;;;;;;;;;;;21.37;31.72;97784.72;4943486;28;1973;-79
2023/04/24 06:30:08;;;;;;;;;;;;;;;21.84;31.29;97791.38;4943491;28;990;-79
2023/04/24 06:32:34;;;;;;;;;;;;;;;22.39;30.83;97782.00;4939889;29;1030;-79
2023/04/24 06:34:59;;;;;;;;;;;;;;;22.53;30.27;97790.00;4939896;29;1110;-79
2023/04/24 06:37:25;;;;;;;;;;;;;;;22.83;29.48;97780.84;4940233;29;1068;-79
2023/04/24 06:39:50;;;;;;;;;;;;;;;22.52;30.01;97782.75;4921322;29;1148;-79
2023/04/24 06:42:16;;;;;;;;;;;;;;;22.59;29.55;97774.81;4918343;29;954;-78
2023/04/24 06:44:43;;;;;;;;;;;;;;;22.71;29.08;97778.06;4918177;29;1202;-79
2023/04/24 06:47:08;;;;;;;;;;;;;;;22.71;29.29;97778.84;4932557;29;1110;-68
2023/04/24 06:49:37;;;;;;;;;;;;;;;22.54;29.58;97778.22;4931576;29;1903;-69
2023/04/24 06:52:02;;;;;;;;;;;;;;;22.59;29.67;97788.19;4918017;29;972;-68
2023/04/24 06:54:28;;;;;;;;;;;;;;;22.06;30.28;97790.69;4905430;29;1550;-68
2023/04/24 06:56:54;;;;;;;;;;;;;;;21.71;30.60;97787.75;4965835;28;1675;-69
2023/04/24 06:59:20;;;;;;;;;;;;;;;22.45;29.51;97777.34;4974860;28;1470;-67
2023/04/24 07:01:45;;;;;;;;;;;;;;;22.18;29.64;97780.66;4975268;28;1523;-68
2023/04/24 07:04:12;;;;;;;;;;;;;;;22.25;29.68;97791.75;4975381;28;1009;-79
2023/04/24 07:06:38;;;;;;;;;;;;;;;21.86;29.97;97790.91;4975263;28;1041;-80
2023/04/24 07:09:04;;;;;;;;;;;;;;;21.81;30.51;97786.63;4959415;28;1898;-79
2023/04/24 07:11:30;;;;;;;;;;;;;;;22.52;29.95;97782.75;5022663;28;995;-80
2023/04/24 07:13:55;;;;;;;;;;;;;;;22.58;29.81;97786.59;4962113;28;1337;-79
2023/04/24 07:16:21;;;;;;;;;;;;;;;23.01;29.83;97783.09;4994136;28;1699;-78
2023/04/24 07:18:53;;;;;;;;;;;;;;;22.85;29.87;97778.38;4979092;28;1227;-79
2023/04/24 07:21:18;;;;;;;;;;;;;;;23.06;29.35;97793.06;4994449;28;1268;-80
2023/04/24 07:23:44;;;;;;;;;;;;;;;22.50;30.17;97796.59;4978166;28;964;-68
2023/04/24 07:26:10;;;;;;;;;;;;;;;21.53;31.27;97790.31;4994601;28;1075;-78
2023/04/24 07:28:35;;;;;;;;;;;;;;;21.67;31.00;97787.06;4977830;28;1895;-79
2023/04/24 07:31:01;;;;;;;;;;;;;;;22.16;31.15;97778.25;4961678;28;1007;-80
2023/04/24 07:33:26;;;;;;;;;;;;;;;22.82;29.70;97784.16;4951218;28;1703;-77
2023/04/24 07:35:52;;;;;;;;;;;;;;;22.06;30.75;97779.38;4974742;28;964;-80
2023/04/24 07:38:21;;;;;;;;;;;;;;;21.32;31.74;97784.03;4958776;28;1075;-76
2023/04/24 07:40:46;;;;;;;;;;;;;;;21.76;31.04;97778.69;4959081;28;1092;-76
2023/04/24 07:43:12;;;;;;;;;;;;;;;21.92;31.25;97802.50;4974681;28;954;-71
2023/04/24 07:45:39;;;;;;;;;;;;;;;22.42;30.02;97789.56;5007506;28;957;-78
2023/04/24 07:48:05;;;;;;;;;;;;;;;22.20;29.96;97787.44;5000793;28;1969;-76
2023/04/24 07:50:30;;;;;;;;;;;;;;;21.27;31.80;97798.69;4999502;28;1070;-77
2023/04/24 07:52:56;;;;;;;;;;;;;;;21.38;31.66;97797.63;4998732;28;1231;-77
2023/04/24 07:55:21;;;;;;;;;;;;;;;22.13;30.08;97806.72;4999220;28;992;-78
2023/04/24 07:57:47;;;;;;;;;;;;;;;22.25;29.47;97795.38;5000020;28;1194;-80
2023/04/24 08:00:13;;;;;;;;;;;;;;;21.99;30.06;97802.28;5000354;28;1003;-78
2023/04/24 08:02:38;;;;;;;;;;;;;;;22.18;29.56;97795.63;4978798;28;1193;-77
2023/04/24 08:05:04;;;;;;;;;;;;;;;22.05;29.51;97806.13;4997341;28;1057;-79
2023/04/24 08:07:30;;;;;;;;;;;;;;;21.88;29.68;97805.44;4999022;28;1001;-78
2023/04/24 08:09:55;;;;;;;;;;;;;;;22.03;29.44;97800.91;4981077;28;1907;-77
2023/04/24 08:12:21;;;;;;;;;;;;;;;22.09;28.94;97801.94;4983266;28;1076;-79
2023/04/24 08:14:46;;;;;;;;;;;;;;;22.07;29.23;97792.28;4981437;28;995;-78
2023/04/24 08:17:12;;;;;;;;;;;;;;;22.06;29.04;97799.19;4999641;28;1087;-78
2023/04/24 08:19:37;;;;;;;;;;;;;;;21.97;28.99;97799.09;4981671;28;1132;-79
2023/04/24 08:22:03;;;;;;;;;;;;;;;21.88;29.36;97799.78;4999336;28;967;-78
2023/04/24 08:24:29;;;;;;;;;;;;;;;21.85;29.10;97795.78;4997752;28;954;-79
2023/04/24 08:26:56;;;;;;;;;;;;;;;22.15;29.07;97790.84;4975358;28;1004;-77
2023/04/24 08:29:22;;;;;;;;;;;;;;;21.96;28.91;97797.50;4959303;28;1977;-77
2023/04/24 08:31:48;;;;;;;;;;;;;;;21.89;29.16;97797.72;4975792;28;998;-77
2023/04/24 08:34:13;;;;;;;;;;;;;;;21.58;29.56;97796.19;4939834;29;1264;-77
2023/04/24 08:36:40;;;;;;;;;;;;;;;21.44;29.71;97790.16;4956365;29;1197;-77
2023/04/24 08:39:06;;;;;;;;;;;;;;;21.44;29.66;97784.50;4955704;29;951;-77
2023/04/24 08:41:32;;;;;;;;;;;;;;;21.31;29.77;97779.63;4956048;29;896;-77
2023/04/24 08:43:58;;;;;;;;;;;;;;;21.76;29.63;97783.53;4955918;29;984;-77
2023/04/24 08:46:24;;;;;;;;;;;;;;;21.98;29.51;97789.34;4956438;29;985;-77
2023/04/24 08:48:50;;;;;;;;;;;;;;;21.98;29.71;97786.53;4936129;29;1907;-77
2023/04/24 08:51:15;;;;;;;;;;;;;;;21.96;29.68;97783.31;4921140;29;950;-77
2023/04/24 08:53:41;;;;;;;;;;;;;;;21.75;29.79;97788.41;4897978;29;1070;-77
2023/04/24 08:56:06;;;;;;;;;;;;;;;21.70;29.65;97791.00;4899086;29;1130;-77
2023/04/24 08:58:32;;;;;;;;;;;;;;;21.49;29.71;97775.47;4900348;29;1023;-77
2023/04/24 09:00:57;;;;;;;;;;;;;;;21.26;30.07;97776.50;4883272;29;1071;-77
2023/04/24 09:03:23;;;;;;;;;;;;;;;21.58;29.73;97772.75;4882933;29;988;-77
2023/04/24 09:05:50;;;;;;;;;;;;;;;22.07;28.95;97763.94;4897172;29;1012;-77
2023/04/24 09:08:18;;;;;;;;;;;;;;;22.09;29.06;97773.59;4901277;29;1899;-77
2023/04/24 09:10:44;;;;;;;;;;;;;;;21.79;29.21;97771.31;4901904;29;944;-77
2023/04/24 09:13:10;;;;;;;;;;;;;;;21.52;29.59;97774.56;4901423;29;1330;-77
2023/04/24 09:15:36;;;;;;;;;;;;;;;21.35;29.78;97765.38;4885776;29;1019;-77
2023/04/24 09:18:01;;;;;;;;;;;;;;;21.65;29.11;97771.75;4901608;29;1058;-77
2023/04/24 09:20:27;;;;;;;;;;;;;;;21.81;28.79;97772.47;4900763;29;1302;-77
2023/04/24 09:22:56;;;;;;;;;;;;;;;21.59;28.93;97763.03;4905095;29;1127;-77
2023/04/24 09:25:22;;;;;;;;;;;;;;;21.46;29.36;97762.22;4920597;29;1054;-77
2023/04/24 09:27:47;;;;;;;;;;;;;;;21.99;28.72;97754.09;4920490;29;1903;-77
2023/04/24 09:30:13;;;;;;;;;;;;;;;22.06;28.36;97762.38;4912019;28;1122;-77
2023/04/24 09:32:39;;;;;;;;;;;;;;;22.12;28.51;97757.75;4962160;28;1057;-77
2023/04/24 09:35:14;;;;;;;;;;;;;;;22.18;28.11;97764.44;4930049;28;1109;-78
2023/04/24 09:37:46;;;;;;;;;;;;;;;21.58;28.85;97761.44;4958767;28;1308;-77
2023/04/24 09:40:15;;;;;;;;;;;;;;;21.61;28.60;97771.88;5016901;28;975;-77
2023/04/24 09:42:45;;;;;;;;;;;;;;;21.68;28.61;97776.53;4984306;28;1116;-77
2023/04/24 09:45:11;;;;;;;;;;;;;;;21.54;28.76;97761.53;4984464;28;1081;-78
2023/04/24 09:47:39;;;;;;;;;;;;;;;21.89;28.68;97758.06;4968437;28;1133;-77
2023/04/24 09:50:22;;;;;;;;;;;;;;;21.86;28.77;97756.91;5000349;28;875;-77
2023/04/24 09:52:57;;;;;;;;;;;;;;;22.02;28.51;97753.19;5000114;28;965;-77
2023/04/24 09:55:23;;;;;;;;;;;;;;;21.59;28.67;97751.69;5016392;28;939;-77
2023/04/24 09:57:52;;;;;;;;;;;;;;;21.45;28.93;97750.09;5016692;28;870;-77
2023/04/24 10:00:18;;;;;;;;;;;;;;;21.33;29.11;97748.81;5016652;28;1018;-77
2023/04/24 10:02:44;;;;;;;;;;;;;;;21.22;29.55;97753.19;4999884;28;1458;-77
2023/04/24 10:05:10;;;;;;;;;;;;;;;21.90;28.36;97745.50;4997219;28;1155;-77
2023/04/24 10:07:37;;;;;;;;;;;;;;;21.94;28.53;97744.13;4980701;28;972;-77
2023/04/24 10:10:03;;;;;;;;;;;;;;;21.96;28.39;97740.84;4996509;28;1985;-77
2023/04/24 10:12:28;;;;;;;;;;;;;;;21.70;28.55;97752.16;5001338;28;771;-78
2023/04/24 10:14:54;;;;;;;;;;;;;;;21.66;28.49;97739.34;4997365;28;1322;-78
2023/04/24 10:17:20;;;;;;;;;;;;;;;21.61;28.53;97745.59;4981850;28;895;-78
2023/04/24 10:19:47;;;;;;;;;;;;;;;21.68;28.36;97749.00;4981419;28;1083;-75
2023/04/24 10:22:12;;;;;;;;;;;;;;;21.78;28.41;97742.22;4981335;28;1003;-75
2023/04/24 10:24:38;;;;;;;;;;;;;;;21.58;28.68;97742.41;4976147;28;968;-76
2023/04/24 10:27:03;;;;;;;;;;;;;;;21.58;28.67;97733.91;4961024;28;1155;-76
2023/04/24 10:29:29;;;;;;;;;;;;;;;22.02;28.31;97727.69;4960435;28;1997;-76
2023/04/24 10:31:55;;;;;;;;;;;;;;;22.10;27.84;97727.03;4944802;28;1045;-76
2023/04/24 10:34:20;;;;;;;;;;;;;;;22.13;27.81;97716.84;4976227;28;827;-76
2023/04/24 10:36:47;;;;;;;;;;;;;;;21.82;28.39;97727.94;4960154;28;1026;-76
2023/04/24 10:39:14;;;;;;;;;;;;;;;21.67;28.28;97727.59;4944176;28;914;-77
2023/04/24 10:41:40;;;;;;;;;;;;;;;21.13;29.27;97724.75;4944560;28;911;-76
2023/04/24 10:44:13;;;;;;;;;;;;;;;21.70;28.66;97718.19;4975968;28;806;-76
2023/04/24 10:46:39;;;;;;;;;;;;;;;22.14;27.88;97718.44;4961004;28;822;-76
2023/04/24 10:49:11;;;;;;;;;;;;;;;21.82;28.26;97717.41;4943959;28;1910;-76
2023/04/24 10:51:49;;;;;;;;;;;;;;;21.83;28.18;97721.81;4941664;29;839;-76
2023/04/24 10:54:27;;;;;;;;;;;;;;;21.85;28.18;97719.31;4919034;29;1228;-76
2023/04/24 10:56:53;;;;;;;;;;;;;;;21.46;28.53;97722.59;4937631;29;985;-76
2023/04/24 10:59:27;;;;;;;;;;;;;;;21.42;28.57;97714.19;4937492;29;885;-76
2023/04/24 11:01:54;;;;;;;;;;;;;;;21.50;28.61;97720.44;4937998;29;910;-76
2023/04/24 11:04:28;;;;;;;;;;;;;;;21.36;28.90;97709.56;4937034;29;815;-76
2023/04/24 11:06:54;;;;;;;;;;;;;;;21.79;28.53;97704.13;4938203;29;875;-76
2023/04/24 11:09:19;;;;;;;;;;;;;;;22.14;28.00;97701.41;4937300;29;1910;-76
2023/04/24 11:11:45;;;;;;;;;;;;;;;22.08;28.03;97703.22;4937659;29;1589;-77
2023/04/24 11:14:10;;;;;;;;;;;;;;;21.83;28.08;97704.81;4937231;29;1068;-76
2023/04/24 11:16:42;;;;;;;;;;;;;;;21.69;28.21;97705.28;4937612;29;1108;-76
2023/04/24 11:19:08;;;;;;;;;;;;;;;21.51;28.34;97700.19;4937197;29;1041;-76
2023/04/24 11:21:40;;;;;;;;;;;;;;;21.33;28.67;97706.38;4939614;28;1021;-76
2023/04/24 11:24:25;;;;;;;;;;;;;;;21.39;28.61;97705.81;4960850;28;1121;-76
2023/04/24 11:26:54;;;;;;;;;;;;;;;22.05;27.79;97706.94;4980303;28;1093;-76
2023/04/24 11:29:20;;;;;;;;;;;;;;;21.87;28.18;97703.94;4996471;28;1934;-76
2023/04/24 11:31:51;;;;;;;;;;;;;;;22.06;27.90;97700.03;4996437;28;1220;-76
2023/04/24 11:34:16;;;;;;;;;;;;;;;21.72;28.15;97704.38;4997180;28;989;-76
2023/04/24 11:36:45;;;;;;;;;;;;;;;21.59;28.13;97712.06;4996787;28;1071;-76
2023/04/24 11:39:11;;;;;;;;;;;;;;;21.61;28.37;97709.59;5016653;28;954;-76
2023/04/24 11:41:37;;;;;;;;;;;;;;;21.25;28.77;97704.97;4999883;28;960;-76
2023/04/24 11:44:03;;;;;;;;;;;;;;;21.70;28.53;97704.00;4999272;28;952;-76
2023/04/24 11:46:29;;;;;;;;;;;;;;;22.03;27.94;97707.41;4983662;28;1100;-76
2023/04/24 11:48:55;;;;;;;;;;;;;;;22.02;27.70;97705.00;4999341;28;1971;-76
2023/04/24 11:51:22;;;;;;;;;;;;;;;21.99;27.63;97698.22;4999732;28;948;-76
2023/04/24 11:53:48;;;;;;;;;;;;;;;21.87;27.87;97695.44;5016255;28;889;-77
2023/04/24 11:56:16;;;;;;;;;;;;;;;21.69;27.90;97693.94;4956287;29;1000;-76
2023/04/24 11:58:42;;;;;;;;;;;;;;;21.54;28.46;97681.47;4955506;29;949;-76
2023/04/24 12:01:07;;;;;;;;;;;;;;;21.70;28.27;97687.03;4902301;29;1080;-76
2023/04/24 12:03:33;;;;;;;;;;;;;;;22.06;27.83;97686.66;4917777;29;980;-76
2023/04/24 12:06:08;;;;;;;;;;;;;;;22.25;27.36;97684.06;4918076;29;1022;-76
2023/04/24 12:08:33;;;;;;;;;;;;;;;22.06;27.63;97688.69;4886413;29;1903;-77
2023/04/24 12:11:02;;;;;;;;;;;;;;;21.62;28.13;97671.53;4917960;29;1210;-76
2023/04/24 12:13:28;;;;;;;;;;;;;;;21.47;28.16;97664.72;4917077;29;980;-76
2023/04/24 12:15:54;;;;;;;;;;;;;;;21.50;28.33;97672.31;4917980;29;1003;-76
2023/04/24 12:18:22;;;;;;;;;;;;;;;22.02;28.18;97674.69;4917361;29;962;-76
2023/04/24 12:20:47;;;;;;;;;;;;;;;22.04;27.64;97668.53;4917752;29;998;-77
2023/04/24 12:23:13;;;;;;;;;;;;;;;22.18;27.79;97673.75;4885771;29;1165;-76
2023/04/24 12:25:38;;;;;;;;;;;;;;;21.83;28.01;97659.50;4902302;29;964;-76
2023/04/24 12:28:04;;;;;;;;;;;;;;;21.46;28.70;97663.16;4933970;29;1911;-76
2023/04/24 12:30:30;;;;;;;;;;;;;;;21.45;28.38;97667.19;4955643;29;984;-76
2023/04/24 12:32:57;;;;;;;;;;;;;;;21.59;28.84;97661.09;4940695;29;877;-76
2023/04/24 12:35:22;;;;;;;;;;;;;;;22.06;27.61;97654.69;4943436;29;972;-76
2023/04/24 12:37:48;;;;;;;;;;;;;;;22.20;27.61;97659.91;4950968;28;914;-76
2023/04/24 12:40:14;;;;;;;;;;;;;;;21.91;27.67;97662.09;4999156;28;945;-76
2023/04/24 12:42:43;;;;;;;;;;;;;;;21.83;27.90;97661.53;4982696;28;938;-76
2023/04/24 12:45:09;;;;;;;;;;;;;;;21.75;27.78;97654.53;4978324;28;1158;-76
2023/04/24 12:47:35;;;;;;;;;;;;;;;21.68;27.88;97641.41;4962240;28;1049;-76
2023/04/24 12:50:00;;;;;;;;;;;;;;;21.72;28.03;97646.94;4978261;28;1898;-76
2023/04/24 12:52:26;;;;;;;;;;;;;;;21.39;28.42;97646.38;4978306;28;995;-76
2023/04/24 12:54:55;;;;;;;;;;;;;;;21.66;28.68;97641.06;4978134;28;884;-76
2023/04/24 12:57:21;;;;;;;;;;;;;;;21.97;28.14;97629.13;4978402;28;954;-76
2023/04/24 12:59:47;;;;;;;;;;;;;;;22.17;27.52;97637.38;4978004;28;1056;-76